sensor_id;sensor_type;location;lat;lon;timestamp;pressure;altitude;pressure_sealevel;temperature;humidity
8894;BME280;4483;48.622;9.230;2022-11-20T00:00:37;97383.44;;;6.27;100.00
8894;BME280;4483;48.622;9.230;2022-11-20T00:03:04;97380.97;;;6.24;100.00
8894;BME280;4483;48.622;9.230;2022-11-20T00:05:32;97380.16;;;6.24;100.00
8894;BME280;4483;48.622;9.230;2022-11-20T00:07:58;97384.50;;;6.20;100.00
8894;BME280;4483;48.622;9.230;2022-11-20T00:10:25;97385.44;;;6.18;100.00
8894;BME280;4483;48.622;9.230;2022-11-20T00:12:53;97383.03;;;6.13;100.00
8894;BME280;4483;48.622;9.230;2022-11-20T00:15:20;97384.78;;;6.11;100.00
8894;BME280;4483;48.622;9.230;2022-11-20T00:17:46;97378.09;;;6.07;100.00
8894;BME280;4483;48.622;9.230;2022-11-20T00:20:13;97387.59;;;6.03;100.00
8894;BME280;4483;48.622;9.230;2022-11-20T00:22:40;97384.28;;;6.00;100.00
8894;BME280;4483;48.622;9.230;2022-11-20T00:25:07;97378.47;;;5.95;100.00
8894;BME280;4483;48.622;9.230;2022-11-20T00:27:34;97381.16;;;5.90;100.00
8894;BME280;4483;48.622;9.230;2022-11-20T00:30:02;97385.47;;;5.88;100.00
8894;BME280;4483;48.622;9.230;2022-11-20T00:32:29;97383.88;;;5.84;100.00
8894;BME280;4483;48.622;9.230;2022-11-20T00:34:56;97389.09;;;5.80;100.00
8894;BME280;4483;48.622;9.230;2022-11-20T00:37:23;97386.63;;;5.77;100.00
8894;BME280;4483;48.622;9.230;2022-11-20T00:39:49;97386.66;;;5.75;100.00
8894;BME280;4483;48.622;9.230;2022-11-20T00:42:16;97390.16;;;5.73;100.00
8894;BME280;4483;48.622;9.230;2022-11-20T00:44:42;97385.97;;;5.70;100.00
8894;BME280;4483;48.622;9.230;2022-11-20T00:47:10;97387.81;;;5.65;100.00
8894;BME280;4483;48.622;9.230;2022-11-20T00:49:37;97383.03;;;5.55;100.00
8894;BME280;4483;48.622;9.230;2022-11-20T00:52:04;97394.81;;;5.59;100.00
8894;BME280;4483;48.622;9.230;2022-11-20T00:54:31;97396.63;;;5.55;100.00
8894;BME280;4483;48.622;9.230;2022-11-20T00:56:57;97395.06;;;5.50;100.00
8894;BME280;4483;48.622;9.230;2022-11-20T00:59:24;97400.38;;;5.44;100.00
8894;BME280;4483;48.622;9.230;2022-11-20T01:01:50;97403.03;;;5.39;100.00
8894;BME280;4483;48.622;9.230;2022-11-20T01:04:18;97401.44;;;5.35;100.00
8894;BME280;4483;48.622;9.230;2022-11-20T01:06:45;97405.78;;;5.32;100.00
8894;BME280;4483;48.622;9.230;2022-11-20T01:09:13;97412.66;;;5.30;100.00
8894;BME280;4483;48.622;9.230;2022-11-20T01:11:41;97415.34;;;5.25;100.00
8894;BME280;4483;48.622;9.230;2022-11-20T01:14:12;97411.16;;;5.23;100.00
8894;BME280;4483;48.622;9.230;2022-11-20T01:16:40;97407.88;;;5.18;100.00
8894;BME280;4483;48.622;9.230;2022-11-20T01:19:10;97409.75;;;5.11;100.00
8894;BME280;4483;48.622;9.230;2022-11-20T01:21:40;97416.72;;;5.04;100.00
8894;BME280;4483;48.622;9.230;2022-11-20T01:24:09;97414.28;;;5.00;100.00
8894;BME280;4483;48.622;9.230;2022-11-20T01:26:38;97422.88;;;4.97;100.00
8894;BME280;4483;48.622;9.230;2022-11-20T01:29:06;97422.94;;;4.94;100.00
8894;BME280;4483;48.622;9.230;2022-11-20T01:31:34;97417.19;;;4.86;100.00
8894;BME280;4483;48.622;9.230;2022-11-20T01:34:03;97418.16;;;4.82;100.00
8894;BME280;4483;48.622;9.230;2022-11-20T01:36:32;97417.38;;;4.79;100.00
8894;BME280;4483;48.622;9.230;2022-11-20T01:39:01;97416.50;;;4.80;100.00
8894;BME280;4483;48.622;9.230;2022-11-20T01:41:31;97408.97;;;4.75;100.00
8894;BME280;4483;48.622;9.230;2022-11-20T01:44:18;97409.72;;;4.79;100.00
8894;BME280;4483;48.622;9.230;2022-11-20T01:46:52;97420.78;;;4.79;100.00
8894;BME280;4483;48.622;9.230;2022-11-20T01:49:26;97411.47;;;4.77;100.00
8894;BME280;4483;48.622;9.230;2022-11-20T01:51:56;97416.66;;;4.74;100.00
8894;BME280;4483;48.622;9.230;2022-11-20T01:54:31;97402.25;;;4.71;100.00
8894;BME280;4483;48.622;9.230;2022-11-20T01:57:01;97411.69;;;4.68;100.00
8894;BME280;4483;48.622;9.230;2022-11-20T01:59:29;97410.03;;;4.67;100.00
8894;BME280;4483;48.622;9.230;2022-11-20T02:01:56;97409.19;;;4.66;100.00
8894;BME280;4483;48.622;9.230;2022-11-20T02:04:24;97411.78;;;4.65;100.00
8894;BME280;4483;48.622;9.230;2022-11-20T02:06:54;97411.84;;;4.62;100.00
8894;BME280;4483;48.622;9.230;2022-11-20T02:09:25;97416.97;;;4.60;100.00
8894;BME280;4483;48.622;9.230;2022-11-20T02:11:53;97420.41;;;4.59;100.00
8894;BME280;4483;48.622;9.230;2022-11-20T02:14:20;97420.41;;;4.59;100.00
8894;BME280;4483;48.622;9.230;2022-11-20T02:16:48;97421.31;;;4.57;100.00
8894;BME280;4483;48.622;9.230;2022-11-20T02:19:21;97419.72;;;4.53;100.00
8894;BME280;4483;48.622;9.230;2022-11-20T02:21:56;97410.53;;;4.46;100.00
8894;BME280;4483;48.622;9.230;2022-11-20T02:24:27;97410.63;;;4.43;100.00
8894;BME280;4483;48.622;9.230;2022-11-20T02:26:58;97417.53;;;4.36;100.00
8894;BME280;4483;48.622;9.230;2022-11-20T02:29:31;97417.59;;;4.35;100.00
8894;BME280;4483;48.622;9.230;2022-11-20T02:32:00;97413.38;;;4.34;100.00
8894;BME280;4483;48.622;9.230;2022-11-20T02:34:28;97412.53;;;4.33;100.00
8894;BME280;4483;48.622;9.230;2022-11-20T02:36:56;97412.44;;;4.36;100.00
8894;BME280;4483;48.622;9.230;2022-11-20T02:39:25;97414.06;;;4.40;100.00
8894;BME280;4483;48.622;9.230;2022-11-20T02:41:56;97412.34;;;4.41;100.00
8894;BME280;4483;48.622;9.230;2022-11-20T02:44:22;97416.66;;;4.39;100.00
8894;BME280;4483;48.622;9.230;2022-11-20T02:46:49;97416.69;;;4.37;100.00
8894;BME280;4483;48.622;9.230;2022-11-20T02:49:16;97412.50;;;4.35;100.00
8894;BME280;4483;48.622;9.230;2022-11-20T02:51:42;97415.09;;;4.33;100.00
8894;BME280;4483;48.622;9.230;2022-11-20T02:54:09;97413.59;;;4.25;100.00
8894;BME280;4483;48.622;9.230;2022-11-20T02:56:37;97409.44;;;4.21;100.00
8894;BME280;4483;48.622;9.230;2022-11-20T02:59:05;97404.50;;;4.13;100.00
8894;BME280;4483;48.622;9.230;2022-11-20T03:01:32;97413.00;;;4.12;100.00
8894;BME280;4483;48.622;9.230;2022-11-20T03:03:59;97409.63;;;4.12;100.00
8894;BME280;4483;48.622;9.230;2022-11-20T03:06:26;97414.66;;;4.15;100.00
8894;BME280;4483;48.622;9.230;2022-11-20T03:08:52;97418.81;;;4.19;100.00
8894;BME280;4483;48.622;9.230;2022-11-20T03:11:19;97416.22;;;4.20;100.00
8894;BME280;4483;48.622;9.230;2022-11-20T03:13:46;97423.75;;;4.26;100.00
8894;BME280;4483;48.622;9.230;2022-11-20T03:16:16;97420.63;;;4.14;100.00
8894;BME280;4483;48.622;9.230;2022-11-20T03:18:43;97413.16;;;4.06;100.00
8894;BME280;4483;48.622;9.230;2022-11-20T03:21:12;97419.25;;;3.99;100.00
8894;BME280;4483;48.622;9.230;2022-11-20T03:23:40;97412.47;;;3.98;100.00
8894;BME280;4483;48.622;9.230;2022-11-20T03:26:11;97409.03;;;4.00;100.00
8894;BME280;4483;48.622;9.230;2022-11-20T03:28:37;97412.34;;;4.04;100.00
8894;BME280;4483;48.622;9.230;2022-11-20T03:31:06;97409.78;;;4.04;100.00
8894;BME280;4483;48.622;9.230;2022-11-20T03:33:34;97406.34;;;4.05;100.00
8894;BME280;4483;48.622;9.230;2022-11-20T03:36:02;97409.69;;;4.08;100.00
8894;BME280;4483;48.622;9.230;2022-11-20T03:38:29;97405.34;;;4.12;100.00
8894;BME280;4483;48.622;9.230;2022-11-20T03:40:59;97408.69;;;4.14;100.00
8894;BME280;4483;48.622;9.230;2022-11-20T03:43:26;97406.97;;;4.16;100.00
8894;BME280;4483;48.622;9.230;2022-11-20T03:45:53;97415.41;;;4.18;100.00
8894;BME280;4483;48.622;9.230;2022-11-20T03:48:19;97412.88;;;4.18;100.00
8894;BME280;4483;48.622;9.230;2022-11-20T03:50:47;97416.25;;;4.19;100.00
8894;BME280;4483;48.622;9.230;2022-11-20T03:53:14;97420.47;;;4.20;100.00
8894;BME280;4483;48.622;9.230;2022-11-20T03:55:41;97409.50;;;4.16;100.00
8894;BME280;4483;48.622;9.230;2022-11-20T03:58:07;97408.69;;;4.16;100.00
8894;BME280;4483;48.622;9.230;2022-11-20T04:00:34;97408.69;;;4.14;100.00
8894;BME280;4483;48.622;9.230;2022-11-20T04:03:02;97415.50;;;4.15;100.00
8894;BME280;4483;48.622;9.230;2022-11-20T04:05:29;97406.16;;;4.16;100.00
8894;BME280;4483;48.622;9.230;2022-11-20T04:07:57;97414.56;;;4.19;100.00
8894;BME280;4483;48.622;9.230;2022-11-20T04:10:24;97407.72;;;4.20;100.00
8894;BME280;4483;48.622;9.230;2022-11-20T04:12:50;97412.78;;;4.23;100.00
8894;BME280;4483;48.622;9.230;2022-11-20T04:15:17;97412.81;;;4.20;100.00
8894;BME280;4483;48.622;9.230;2022-11-20T04:17:43;97413.00;;;4.14;100.00
8894;BME280;4483;48.622;9.230;2022-11-20T04:20:10;97402.03;;;4.10;100.00
8894;BME280;4483;48.622;9.230;2022-11-20T04:22:38;97405.44;;;4.09;100.00
8894;BME280;4483;48.622;9.230;2022-11-20T04:25:06;97396.03;;;4.11;100.00
8894;BME280;4483;48.622;9.230;2022-11-20T04:27:33;97399.44;;;4.12;100.00
8894;BME280;4483;48.622;9.230;2022-11-20T04:30:00;97394.16;;;4.19;100.00
8894;BME280;4483;48.622;9.230;2022-11-20T04:32:26;97383.19;;;4.16;100.00
8894;BME280;4483;48.622;9.230;2022-11-20T04:34:53;97390.84;;;4.14;100.00
8894;BME280;4483;48.622;9.230;2022-11-20T04:37:20;97391.63;;;4.18;100.00
8894;BME280;4483;48.622;9.230;2022-11-20T04:39:46;97386.34;;;4.25;100.00
8894;BME280;4483;48.622;9.230;2022-11-20T04:42:14;97380.06;;;4.40;100.00
8894;BME280;4483;48.622;9.230;2022-11-20T04:44:56;97377.50;;;4.41;100.00
8894;BME280;4483;48.622;9.230;2022-11-20T04:47:23;97384.34;;;4.39;100.00
8894;BME280;4483;48.622;9.230;2022-11-20T04:49:50;97379.06;;;4.45;100.00
8894;BME280;4483;48.622;9.230;2022-11-20T04:52:16;97377.28;;;4.50;100.00
8894;BME280;4483;48.622;9.230;2022-11-20T04:54:43;97383.13;;;4.54;100.00
8894;BME280;4483;48.622;9.230;2022-11-20T04:57:09;97377.94;;;4.57;100.00
8894;BME280;4483;48.622;9.230;2022-11-20T04:59:38;97373.56;;;4.62;100.00
8894;BME280;4483;48.622;9.230;2022-11-20T05:02:04;97376.88;;;4.65;100.00
8894;BME280;4483;48.622;9.230;2022-11-20T05:04:31;97376.03;;;4.66;100.00
8894;BME280;4483;48.622;9.230;2022-11-20T05:06:57;97378.44;;;4.72;100.00
8894;BME280;4483;48.622;9.230;2022-11-20T05:09:24;97377.34;;;4.81;100.00
8894;BME280;4483;48.622;9.230;2022-11-20T05:11:51;97384.13;;;4.82;100.00
8894;BME280;4483;48.622;9.230;2022-11-20T05:14:17;97385.75;;;4.84;100.00
8894;BME280;4483;48.622;9.230;2022-11-20T05:16:45;97381.34;;;4.91;100.00
8894;BME280;4483;48.622;9.230;2022-11-20T05:19:12;97386.38;;;4.94;100.00
8894;BME280;4483;48.622;9.230;2022-11-20T05:21:39;97386.28;;;4.97;100.00
8894;BME280;4483;48.622;9.230;2022-11-20T05:24:05;97382.75;;;5.02;100.00
8894;BME280;4483;48.622;9.230;2022-11-20T05:26:32;97386.91;;;5.06;100.00
8894;BME280;4483;48.622;9.230;2022-11-20T05:28:59;97387.59;;;5.11;100.00
8894;BME280;4483;48.622;9.230;2022-11-20T05:31:25;97385.06;;;5.11;100.00
8894;BME280;4483;48.622;9.230;2022-11-20T05:33:54;97385.84;;;5.13;100.00
8894;BME280;4483;48.622;9.230;2022-11-20T05:36:22;97384.00;;;5.19;100.00
8894;BME280;4483;48.622;9.230;2022-11-20T05:38:49;97375.50;;;5.20;100.00
8894;BME280;4483;48.622;9.230;2022-11-20T05:41:18;97383.06;;;5.23;100.00
8894;BME280;4483;48.622;9.230;2022-11-20T05:43:46;97372.78;;;5.24;100.00
8894;BME280;4483;48.622;9.230;2022-11-20T05:46:14;97376.09;;;5.28;100.00
8894;BME280;4483;48.622;9.230;2022-11-20T05:48:42;97377.84;;;5.27;100.00
8894;BME280;4483;48.622;9.230;2022-11-20T05:51:12;97375.81;;;5.38;100.00
8894;BME280;4483;48.622;9.230;2022-11-20T05:53:39;97371.53;;;5.39;100.00
8894;BME280;4483;48.622;9.230;2022-11-20T05:56:07;97369.78;;;5.41;100.00
8894;BME280;4483;48.622;9.230;2022-11-20T05:58:36;97369.72;;;5.42;100.00
8894;BME280;4483;48.622;9.230;2022-11-20T06:01:05;97370.56;;;5.43;100.00
8894;BME280;4483;48.622;9.230;2022-11-20T06:03:32;97368.88;;;5.43;100.00
8894;BME280;4483;48.622;9.230;2022-11-20T06:06:00;97373.03;;;5.46;100.00
8894;BME280;4483;48.622;9.230;2022-11-20T06:08:28;97373.97;;;5.43;100.00
8894;BME280;4483;48.622;9.230;2022-11-20T06:10:55;97372.34;;;5.41;100.00
8894;BME280;4483;48.622;9.230;2022-11-20T06:13:22;97372.38;;;5.39;100.00
8894;BME280;4483;48.622;9.230;2022-11-20T06:15:49;97366.53;;;5.36;100.00
8894;BME280;4483;48.622;9.230;2022-11-20T06:18:16;97368.97;;;5.39;100.00
8894;BME280;4483;48.622;9.230;2022-11-20T06:20:42;97371.41;;;5.43;100.00
8894;BME280;4483;48.622;9.230;2022-11-20T06:23:09;97371.47;;;5.42;100.00
8894;BME280;4483;48.622;9.230;2022-11-20T06:25:38;97361.31;;;5.39;100.00
8894;BME280;4483;48.622;9.230;2022-11-20T06:28:05;97374.03;;;5.42;100.00
8894;BME280;4483;48.622;9.230;2022-11-20T06:30:32;97368.91;;;5.42;100.00
8894;BME280;4483;48.622;9.230;2022-11-20T06:32:59;97376.47;;;5.45;100.00
8894;BME280;4483;48.622;9.230;2022-11-20T06:35:26;97372.16;;;5.47;100.00
8894;BME280;4483;48.622;9.230;2022-11-20T06:37:52;97372.16;;;5.47;100.00
8894;BME280;4483;48.622;9.230;2022-11-20T06:40:19;97373.84;;;5.48;100.00
8894;BME280;4483;48.622;9.230;2022-11-20T06:42:47;97377.03;;;5.56;100.00
8894;BME280;4483;48.622;9.230;2022-11-20T06:45:14;97376.84;;;5.62;100.00
8894;BME280;4483;48.622;9.230;2022-11-20T06:47:40;97381.16;;;5.60;100.00
8894;BME280;4483;48.622;9.230;2022-11-20T06:50:07;97377.66;;;5.64;100.00
8894;BME280;4483;48.622;9.230;2022-11-20T06:52:34;97381.00;;;5.66;100.00
8894;BME280;4483;48.622;9.230;2022-11-20T06:55:01;97395.50;;;5.65;100.00
8894;BME280;4483;48.622;9.230;2022-11-20T06:57:27;97392.19;;;5.62;100.00
8894;BME280;4483;48.622;9.230;2022-11-20T06:59:55;97391.34;;;5.61;100.00
8894;BME280;4483;48.622;9.230;2022-11-20T07:02:22;97391.09;;;5.70;100.00
8894;BME280;4483;48.622;9.230;2022-11-20T07:04:49;97389.38;;;5.71;100.00
8894;BME280;4483;48.622;9.230;2022-11-20T07:07:15;97394.38;;;5.74;100.00
8894;BME280;4483;48.622;9.230;2022-11-20T07:09:42;97399.50;;;5.74;100.00
8894;BME280;4483;48.622;9.230;2022-11-20T07:12:09;97400.41;;;5.73;100.00
8894;BME280;4483;48.622;9.230;2022-11-20T07:14:35;97396.25;;;5.69;100.00
8894;BME280;4483;48.622;9.230;2022-11-20T07:17:03;97397.75;;;5.76;100.00
8894;BME280;4483;48.622;9.230;2022-11-20T07:19:30;97398.44;;;5.81;100.00
8894;BME280;4483;48.622;9.230;2022-11-20T07:21:57;97406.19;;;5.78;100.00
8894;BME280;4483;48.622;9.230;2022-11-20T07:24:23;97403.59;;;5.79;100.00
8894;BME280;4483;48.622;9.230;2022-11-20T07:26:50;97401.75;;;5.86;100.00
8894;BME280;4483;48.622;9.230;2022-11-20T07:29:17;97393.97;;;5.89;99.89
8894;BME280;4483;48.622;9.230;2022-11-20T07:31:43;97399.78;;;5.94;100.00
8894;BME280;4483;48.622;9.230;2022-11-20T07:34:11;97399.00;;;5.92;99.64
8894;BME280;4483;48.622;9.230;2022-11-20T07:36:38;97399.75;;;5.95;99.23
8894;BME280;4483;48.622;9.230;2022-11-20T07:39:05;97401.72;;;6.15;98.74
8894;BME280;4483;48.622;9.230;2022-11-20T07:41:32;97409.69;;;6.06;99.00
8894;BME280;4483;48.622;9.230;2022-11-20T07:43:59;97401.81;;;6.12;98.63
8894;BME280;4483;48.622;9.230;2022-11-20T07:46:26;97404.47;;;6.09;98.43
8894;BME280;4483;48.622;9.230;2022-11-20T07:48:53;97403.56;;;6.10;99.02
8894;BME280;4483;48.622;9.230;2022-11-20T07:51:21;97409.31;;;6.18;98.57
8894;BME280;4483;48.622;9.230;2022-11-20T07:53:50;97403.00;;;6.28;98.86
8894;BME280;4483;48.622;9.230;2022-11-20T07:56:17;97406.19;;;6.36;98.26
8894;BME280;4483;48.622;9.230;2022-11-20T07:58:43;97401.69;;;6.44;97.87
8894;BME280;4483;48.622;9.230;2022-11-20T08:01:10;97394.75;;;6.48;97.59
8894;BME280;4483;48.622;9.230;2022-11-20T08:03:36;97404.06;;;7.01;96.26
8894;BME280;4483;48.622;9.230;2022-11-20T08:06:04;97402.22;;;7.54;95.19
8894;BME280;4483;48.622;9.230;2022-11-20T08:08:32;97392.69;;;8.27;93.29
8894;BME280;4483;48.622;9.230;2022-11-20T08:10:59;97391.44;;;8.37;92.01
8894;BME280;4483;48.622;9.230;2022-11-20T08:13:46;97400.91;;;8.11;90.14
8894;BME280;4483;48.622;9.230;2022-11-20T08:16:30;97411.16;;;7.90;90.25
8894;BME280;4483;48.622;9.230;2022-11-20T08:18:57;97411.53;;;7.79;90.94
8894;BME280;4483;48.622;9.230;2022-11-20T08:21:23;97423.72;;;7.73;90.05
8894;BME280;4483;48.622;9.230;2022-11-20T08:23:52;97420.69;;;7.63;89.73
8894;BME280;4483;48.622;9.230;2022-11-20T08:26:18;97420.44;;;7.46;90.58
8894;BME280;4483;48.622;9.230;2022-11-20T08:28:45;97423.25;;;7.39;91.25
8894;BME280;4483;48.622;9.230;2022-11-20T08:31:12;97430.38;;;7.31;91.23
8894;BME280;4483;48.622;9.230;2022-11-20T08:33:38;97429.06;;;7.19;91.41
8894;BME280;4483;48.622;9.230;2022-11-20T08:36:06;97425.84;;;7.12;91.75
8894;BME280;4483;48.622;9.230;2022-11-20T08:38:33;97433.53;;;7.12;91.69
8894;BME280;4483;48.622;9.230;2022-11-20T08:41:02;97432.09;;;7.05;92.19
8894;BME280;4483;48.622;9.230;2022-11-20T08:43:47;97433.06;;;7.01;92.53
8894;BME280;4483;48.622;9.230;2022-11-20T08:46:14;97438.25;;;7.00;92.81
8894;BME280;4483;48.622;9.230;2022-11-20T08:48:40;97439.81;;;7.04;92.86
8894;BME280;4483;48.622;9.230;2022-11-20T08:51:07;97444.03;;;7.06;92.52
8894;BME280;4483;48.622;9.230;2022-11-20T08:53:34;97433.59;;;7.11;92.02
8894;BME280;4483;48.622;9.230;2022-11-20T08:56:02;97444.69;;;7.11;92.38
8894;BME280;4483;48.622;9.230;2022-11-20T08:58:28;97443.00;;;7.10;92.60
8894;BME280;4483;48.622;9.230;2022-11-20T09:00:55;97443.84;;;7.11;92.77
8894;BME280;4483;48.622;9.230;2022-11-20T09:03:22;97445.06;;;7.26;91.89
8894;BME280;4483;48.622;9.230;2022-11-20T09:05:48;97445.84;;;7.28;91.58
8894;BME280;4483;48.622;9.230;2022-11-20T09:08:15;97444.25;;;7.25;91.96
8894;BME280;4483;48.622;9.230;2022-11-20T09:10:42;97445.19;;;7.23;92.23
8894;BME280;4483;48.622;9.230;2022-11-20T09:13:10;97445.22;;;7.21;92.46
8894;BME280;4483;48.622;9.230;2022-11-20T09:15:37;97447.75;;;7.23;92.75
8894;BME280;4483;48.622;9.230;2022-11-20T09:18:03;97436.44;;;7.28;92.60
8894;BME280;4483;48.622;9.230;2022-11-20T09:20:31;97445.78;;;7.29;92.92
8894;BME280;4483;48.622;9.230;2022-11-20T09:22:58;97444.06;;;7.30;93.00
8894;BME280;4483;48.622;9.230;2022-11-20T09:25:24;97440.31;;;7.40;93.07
8894;BME280;4483;48.622;9.230;2022-11-20T09:27:55;97450.09;;;7.53;93.20
8894;BME280;4483;48.622;9.230;2022-11-20T09:30:23;97450.16;;;7.52;93.22
8894;BME280;4483;48.622;9.230;2022-11-20T09:32:50;97449.16;;;7.56;93.08
8894;BME280;4483;48.622;9.230;2022-11-20T09:35:17;97450.88;;;7.55;93.29
8894;BME280;4483;48.622;9.230;2022-11-20T09:37:44;97451.59;;;7.59;93.57
8894;BME280;4483;48.622;9.230;2022-11-20T09:40:19;97452.50;;;7.58;94.17
8894;BME280;4483;48.622;9.230;2022-11-20T09:42:51;97459.28;;;7.59;94.33
8894;BME280;4483;48.622;9.230;2022-11-20T09:45:26;97455.72;;;7.63;94.54
8894;BME280;4483;48.622;9.230;2022-11-20T09:48:05;97463.22;;;7.69;94.86
8894;BME280;4483;48.622;9.230;2022-11-20T09:50:43;97462.31;;;7.70;94.80
8894;BME280;4483;48.622;9.230;2022-11-20T09:53:21;97450.34;;;7.70;94.76
8894;BME280;4483;48.622;9.230;2022-11-20T09:55:49;97459.63;;;7.73;94.56
8894;BME280;4483;48.622;9.230;2022-11-20T09:58:21;97468.38;;;7.67;95.10
8894;BME280;4483;48.622;9.230;2022-11-20T10:00:54;97462.31;;;7.70;94.95
8894;BME280;4483;48.622;9.230;2022-11-20T10:03:34;97462.94;;;7.76;95.02
8894;BME280;4483;48.622;9.230;2022-11-20T10:06:05;97457.66;;;7.81;94.70
8894;BME280;4483;48.622;9.230;2022-11-20T10:08:40;97463.38;;;7.87;94.14
8894;BME280;4483;48.622;9.230;2022-11-20T10:11:12;97471.78;;;7.92;94.26
8894;BME280;4483;48.622;9.230;2022-11-20T10:13:47;97458.94;;;7.92;93.48
8894;BME280;4483;48.622;9.230;2022-11-20T10:16:27;97463.06;;;7.96;94.35
8894;BME280;4483;48.622;9.230;2022-11-20T10:19:10;97467.19;;;8.00;93.85
8894;BME280;4483;48.622;9.230;2022-11-20T10:21:52;97461.69;;;8.11;93.18
8894;BME280;4483;48.622;9.230;2022-11-20T10:24:33;97465.97;;;8.10;92.50
8894;BME280;4483;48.622;9.230;2022-11-20T10:27:13;97460.97;;;8.07;93.44
8894;BME280;4483;48.622;9.230;2022-11-20T10:29:49;97461.31;;;7.97;93.56
8894;BME280;4483;48.622;9.230;2022-11-20T10:32:27;97471.59;;;7.97;94.26
8894;BME280;4483;48.622;9.230;2022-11-20T10:35:00;97459.66;;;7.96;94.84
8894;BME280;4483;48.622;9.230;2022-11-20T10:37:31;97471.66;;;7.95;94.89
8894;BME280;4483;48.622;9.230;2022-11-20T10:40:20;97470.94;;;7.92;95.18
8894;BME280;4483;48.622;9.230;2022-11-20T10:42:51;97464.13;;;7.91;95.52
8894;BME280;4483;48.622;9.230;2022-11-20T10:45:32;97465.66;;;7.95;95.95
8894;BME280;4483;48.622;9.230;2022-11-20T10:48:12;97458.66;;;8.00;95.64
8894;BME280;4483;48.622;9.230;2022-11-20T10:50:53;97469.72;;;8.02;95.34
8894;BME280;4483;48.622;9.230;2022-11-20T10:53:40;97459.28;;;8.06;95.65
8894;BME280;4483;48.622;9.230;2022-11-20T10:56:17;97451.56;;;8.06;95.72
8894;BME280;4483;48.622;9.230;2022-11-20T10:58:52;97454.06;;;8.08;95.36
8894;BME280;4483;48.622;9.230;2022-11-20T11:01:20;97450.78;;;8.04;95.16
8894;BME280;4483;48.622;9.230;2022-11-20T11:03:51;97446.50;;;8.05;95.73
8894;BME280;4483;48.622;9.230;2022-11-20T11:06:22;97446.50;;;8.05;95.81
8894;BME280;4483;48.622;9.230;2022-11-20T11:08:53;97443.94;;;8.05;95.33
8894;BME280;4483;48.622;9.230;2022-11-20T11:11:22;97442.88;;;8.10;95.80
8894;BME280;4483;48.622;9.230;2022-11-20T11:13:50;97436.78;;;8.13;95.56
8894;BME280;4483;48.622;9.230;2022-11-20T11:16:21;97433.81;;;8.25;94.99
8894;BME280;4483;48.622;9.230;2022-11-20T11:18:49;97426.41;;;8.39;93.80
8894;BME280;4483;48.622;9.230;2022-11-20T11:21:22;97431.97;;;8.50;93.66
8894;BME280;4483;48.622;9.230;2022-11-20T11:23:58;97418.75;;;8.59;93.93
8894;BME280;4483;48.622;9.230;2022-11-20T11:26:25;97410.63;;;8.70;93.37
8894;BME280;4483;48.622;9.230;2022-11-20T11:28:53;97409.25;;;8.83;92.92
8894;BME280;4483;48.622;9.230;2022-11-20T11:31:25;97408.56;;;8.99;92.66
8894;BME280;4483;48.622;9.230;2022-11-20T11:34:03;97403.63;;;9.15;91.47
8894;BME280;4483;48.622;9.230;2022-11-20T11:36:32;97407.28;;;9.30;91.51
8894;BME280;4483;48.622;9.230;2022-11-20T11:39:00;97395.91;;;9.35;90.09
8894;BME280;4483;48.622;9.230;2022-11-20T11:41:30;97391.66;;;9.34;90.68
8894;BME280;4483;48.622;9.230;2022-11-20T11:44:02;97390.88;;;9.32;88.71
8894;BME280;4483;48.622;9.230;2022-11-20T11:46:57;97393.56;;;9.49;86.04
8894;BME280;4483;48.622;9.230;2022-11-20T11:49:26;97394.28;;;9.53;87.58
8894;BME280;4483;48.622;9.230;2022-11-20T11:52:03;97379.44;;;9.59;85.93
8894;BME280;4483;48.622;9.230;2022-11-20T11:54:36;97383.84;;;9.76;84.16
8894;BME280;4483;48.622;9.230;2022-11-20T11:57:10;97390.28;;;9.66;83.98
8894;BME280;4483;48.622;9.230;2022-11-20T11:59:46;97371.22;;;9.51;85.55
8894;BME280;4483;48.622;9.230;2022-11-20T12:02:28;97368.13;;;9.43;84.34
8894;BME280;4483;48.622;9.230;2022-11-20T12:05:00;97362.44;;;9.37;84.08
8894;BME280;4483;48.622;9.230;2022-11-20T12:07:36;97364.47;;;9.29;84.52
8894;BME280;4483;48.622;9.230;2022-11-20T12:10:07;97362.91;;;9.26;84.96
8894;BME280;4483;48.622;9.230;2022-11-20T12:12:43;97363.19;;;9.39;83.70
8894;BME280;4483;48.622;9.230;2022-11-20T12:15:12;97364.03;;;9.39;83.70
8894;BME280;4483;48.622;9.230;2022-11-20T12:17:39;97355.63;;;9.36;83.25
8894;BME280;4483;48.622;9.230;2022-11-20T12:20:11;97365.63;;;9.42;83.18
8894;BME280;4483;48.622;9.230;2022-11-20T12:22:44;97358.06;;;9.39;81.39
8894;BME280;4483;48.622;9.230;2022-11-20T12:25:19;97357.28;;;9.37;81.83
8894;BME280;4483;48.622;9.230;2022-11-20T12:28:05;97357.03;;;9.43;79.93
8894;BME280;4483;48.622;9.230;2022-11-20T12:30:41;97349.78;;;9.51;80.62
8894;BME280;4483;48.622;9.230;2022-11-20T12:33:35;97352.75;;;9.80;77.62
8894;BME280;4483;48.622;9.230;2022-11-20T12:36:14;97347.06;;;9.74;77.73
8894;BME280;4483;48.622;9.230;2022-11-20T12:39:01;97353.09;;;9.73;78.42
8894;BME280;4483;48.622;9.230;2022-11-20T12:41:45;97346.47;;;9.67;77.75
8894;BME280;4483;48.622;9.230;2022-11-20T12:44:51;97358.97;;;9.56;75.41
8894;BME280;4483;48.622;9.230;2022-11-20T12:48:00;97362.09;;;9.44;76.18
8894;BME280;4483;48.622;9.230;2022-11-20T12:50:37;97356.88;;;9.46;74.70
8894;BME280;4483;48.622;9.230;2022-11-20T12:53:19;97354.97;;;9.31;74.45
8894;BME280;4483;48.622;9.230;2022-11-20T12:55:56;97363.84;;;9.24;74.57
8894;BME280;4483;48.622;9.230;2022-11-20T12:58:33;97365.97;;;9.14;75.02
8894;BME280;4483;48.622;9.230;2022-11-20T13:01:15;97368.75;;;9.09;76.34
8894;BME280;4483;48.622;9.230;2022-11-20T13:04:11;97362.84;;;9.07;76.32
8894;BME280;4483;48.622;9.230;2022-11-20T13:06:40;97362.91;;;9.06;75.86
8894;BME280;4483;48.622;9.230;2022-11-20T13:09:12;97370.16;;;9.17;74.48
8894;BME280;4483;48.622;9.230;2022-11-20T13:11:43;97365.50;;;9.63;73.46
8894;BME280;4483;48.622;9.230;2022-11-20T13:14:19;97360.91;;;10.44;73.15
8894;BME280;4483;48.622;9.230;2022-11-20T13:16:54;97355.63;;;11.33;70.82
8894;BME280;4483;48.622;9.230;2022-11-20T13:19:25;97356.69;;;11.94;69.58
8894;BME280;4483;48.622;9.230;2022-11-20T13:21:52;97350.22;;;12.18;66.38
8894;BME280;4483;48.622;9.230;2022-11-20T13:24:25;97359.72;;;11.86;66.76
8894;BME280;4483;48.622;9.230;2022-11-20T13:27:18;97354.13;;;11.61;67.46
8894;BME280;4483;48.622;9.230;2022-11-20T13:29:47;97349.06;;;11.43;66.15
8894;BME280;4483;48.622;9.230;2022-11-20T13:32:24;97345.25;;;11.17;66.37
8894;BME280;4483;48.622;9.230;2022-11-20T13:34:52;97351.41;;;10.97;65.73
8894;BME280;4483;48.622;9.230;2022-11-20T13:37:29;97354.81;;;10.81;65.14
8894;BME280;4483;48.622;9.230;2022-11-20T13:40:19;97352.38;;;10.61;65.12
8894;BME280;4483;48.622;9.230;2022-11-20T13:42:55;97345.28;;;10.30;65.67